Robin S — 3YCF — position and weather

sailwx.info

Track history (hours):
 
Tides and Currents Weather Stations Pressure Air Temp Water Temp Dewpoint Dewpoint Depression Visibility Wind Speed Wind Dir Waves Ship Positions

Robin S

Last reported at 2017-Jun-23 19:00 UTC. Time now 2017-Jun-23 19:15 UTC.
Position N 66°20' E 013°00'.

Length 16 m; draft 3.4 m.

Type: Towing. MMSI: 258354500.

Date/timePositionNaut miles runAvg speedWind from/ knotsBaromVisibWave heightAir tempDewpointWater temp
2017-Jun-23 19:00N 66°20' E 013°00'0 0.0
2017-Jun-23 18:30N 66°20' E 013°00'0 0.0
2017-Jun-23 18:00N 66°20' E 013°00'0 0.0
2017-Jun-23 17:30N 66°20' E 013°00'1 1.3
2017-Jun-23 17:00N 66°21' E 012°59'3 5.3
2017-Jun-23 16:30N 66°23' E 013°04'3 5.1
2017-Jun-23 16:00N 66°24' E 013°08'1 2.5
2017-Jun-23 15:30N 66°26' E 013°08'0 0.7
2017-Jun-23 15:00N 66°26' E 013°09'0 0.0
2017-Jun-23 14:00N 66°26' E 013°09'0 0.5
2017-Jun-23 13:30N 66°26' E 013°08'0 0.5
2017-Jun-23 12:59N 66°26' E 013°09'0 0.0
2017-Jun-23 12:30N 66°26' E 013°09'1 1.3
2017-Jun-23 11:59N 66°25' E 013°09'1 1.5
2017-Jun-23 11:30N 66°26' E 013°09'0 0.0
2017-Jun-23 10:59N 66°26' E 013°09'0 0.0
2017-Jun-23 10:30N 66°26' E 013°09'1 1.8
2017-Jun-23 09:59N 66°25' E 013°09'1 2.0
2017-Jun-23 09:30N 66°26' E 013°09'0 0.0
2017-Jun-23 09:00N 66°26' E 013°09'0 0.0
2017-Jun-23 08:30N 66°26' E 013°09'0 0.0
2017-Jun-23 08:00N 66°26' E 013°09'1 2.0
2017-Jun-23 07:30N 66°25' E 013°09'1 1.9
2017-Jun-23 07:00N 66°26' E 013°09'0 0.0
2017-Jun-23 06:30N 66°26' E 013°09'0 0.0
2017-Jun-23 06:00N 66°26' E 013°09'0 0.0
2017-Jun-23 05:30N 66°26' E 013°09'1 2.1
2017-Jun-23 05:00N 66°25' E 013°08'3 5.4
2017-Jun-23 04:30N 66°23' E 013°04'3 5.4
2017-Jun-23 04:00N 66°21' E 012°59'1 1.4
2017-Jun-23 03:30N 66°20' E 013°00'0 0.0
2017-Jun-23 03:00N 66°20' E 013°00'0 0.0
2017-Jun-23 02:30N 66°20' E 013°00'0 0.0
2017-Jun-23 02:00N 66°20' E 013°00'0 0.0
2017-Jun-23 01:30N 66°20' E 013°00'0 0.0
2017-Jun-23 01:00N 66°20' E 013°00'0 0.0
2017-Jun-23 00:29N 66°20' E 013°00'0 0.0
2017-Jun-23 00:00N 66°20' E 013°00'0 0.0
2017-Jun-22 23:29N 66°20' E 013°00'0 0.0
2017-Jun-22 23:00N 66°20' E 013°00'0 0.0
2017-Jun-22 22:30N 66°20' E 013°00'0 0.0
2017-Jun-22 22:00N 66°20' E 013°00'0 0.0
2017-Jun-22 21:30N 66°20' E 013°00'0 0.0
2017-Jun-22 21:00N 66°20' E 013°00'0 0.0
2017-Jun-22 20:30N 66°20' E 013°00'0 0.0
2017-Jun-22 20:00N 66°20' E 013°00'0 0.0
2017-Jun-22 19:30N 66°20' E 013°00'0 0.0
2017-Jun-22 19:00N 66°20' E 013°00'0 0.0
2017-Jun-22 18:29N 66°20' E 013°00'2 3.5
2017-Jun-22 18:00N 66°22' E 013°01'2 4.9
2017-Jun-22 17:30N 66°23' E 013°06'2 4.2
2017-Jun-22 16:59N 66°25' E 013°09'1 2.0
2017-Jun-22 16:30N 66°26' E 013°09'0 0.0
2017-Jun-22 16:00N 66°26' E 013°09'0 0.0
2017-Jun-22 15:30N 66°26' E 013°09'1 1.1
2017-Jun-22 15:00N 66°25' E 013°08'1 1.1
2017-Jun-22 14:30N 66°26' E 013°09'0 0.0
2017-Jun-22 13:30N 66°26' E 013°09'0 0.1
2017-Jun-22 13:00N 66°26' E 013°09'1 2.0
2017-Jun-22 12:30N 66°25' E 013°09'1 2.0
2017-Jun-22 12:00N 66°26' E 013°08'0 0.3
2017-Jun-22 11:30N 66°26' E 013°09'0 0.0
2017-Jun-22 11:00N 66°26' E 013°09'0 0.0
2017-Jun-22 10:30N 66°26' E 013°09'0 0.8
2017-Jun-22 10:00N 66°26' E 013°08'0 0.6
2017-Jun-22 09:30N 66°26' E 013°09'0 0.2
2017-Jun-22 09:00N 66°26' E 013°09'0 0.0
2017-Jun-22 08:29N 66°26' E 013°09'0 0.5
2017-Jun-22 08:00N 66°26' E 013°08'0 0.1
2017-Jun-22 07:30N 66°26' E 013°08'0 0.6
2017-Jun-22 07:00N 66°26' E 013°09'0 0.0
2017-Jun-22 06:30N 66°26' E 013°09'0 0.0
2017-Jun-22 06:00N 66°26' E 013°09'2 4.1
2017-Jun-22 05:30N 66°24' E 013°08'2 4.6
2017-Jun-22 05:00N 66°23' E 013°03'2 4.5
2017-Jun-22 04:30N 66°21' E 012°59'1 2.0
2017-Jun-22 03:59N 66°20' E 013°00'0 0.0
2017-Jun-22 03:30N 66°20' E 013°00'0 0.0
2017-Jun-22 03:00N 66°20' E 013°00'0 0.0
2017-Jun-22 02:30N 66°20' E 013°00'0 0.0
2017-Jun-22 02:00N 66°20' E 013°00'0 0.0
2017-Jun-22 01:30N 66°20' E 013°00'0 0.0
2017-Jun-22 01:00N 66°20' E 013°00'0 0.0
2017-Jun-22 00:30N 66°20' E 013°00'0 0.0
2017-Jun-22 00:00N 66°20' E 013°00'0 0.0
2017-Jun-21 23:30N 66°20' E 013°00'0 0.0
2017-Jun-21 23:00N 66°20' E 013°00'0 0.0
2017-Jun-21 22:30N 66°20' E 013°00'0 0.0
2017-Jun-21 22:00N 66°20' E 013°00'0 0.0
2017-Jun-21 21:30N 66°20' E 013°00'0 0.0
2017-Jun-21 21:00N 66°20' E 013°00'0 0.0
2017-Jun-21 20:30N 66°20' E 013°00'0 0.0
2017-Jun-21 20:00N 66°20' E 013°00'0 0.0
2017-Jun-21 19:30N 66°20' E 013°00'0 0.0
2017-Jun-21 19:00N 66°20' E 013°00'0 0.0
2017-Jun-21 18:30N 66°20' E 013°00'1 2.5
2017-Jun-21 18:00N 66°22' E 012°60'2 4.9
2017-Jun-21 17:30N 66°23' E 013°05'2 5.0
2017-Jun-21 17:00N 66°25' E 013°09'1 2.0
2017-Jun-21 16:30N 66°26' E 013°08'0 0.4
2017-Jun-21 16:00N 66°26' E 013°09'0 0.0
2017-Jun-21 15:30N 66°26' E 013°09'1 1.3
2017-Jun-21 15:00N 66°25' E 013°08'1 1.3
2017-Jun-21 14:30N 66°26' E 013°09'0 0.0
2017-Jun-21 13:26N 66°26' E 013°09'1 1.6
2017-Jun-21 12:50N 66°25' E 013°09'1 2.9
2017-Jun-21 12:30N 66°26' E 013°09'0 0.1
2017-Jun-21 12:00N 66°26' E 013°09'0 0.0
2017-Jun-21 11:29N 66°26' E 013°09'0 0.1
2017-Jun-21 11:00N 66°26' E 013°09'0 0.0
2017-Jun-21 10:30N 66°26' E 013°09'0 0.1
2017-Jun-21 10:00N 66°26' E 013°09'0 0.2
2017-Jun-21 09:30N 66°26' E 013°09'1 1.3
2017-Jun-21 08:48N 66°25' E 013°09'1 4.3
2017-Jun-21 08:30N 66°24' E 013°08'3 5.0
2017-Jun-21 08:00N 66°22' E 013°03'2 0.5
2017-Jun-21 03:51N 66°20' E 013°00'1 2.9
2017-Jun-21 03:25N 66°21' E 012°59'0 1.1
2017-Jun-21 02:59N 66°22' E 012°60'2 4.9
2017-Jun-21 02:30N 66°23' E 013°05'2 4.6
2017-Jun-21 02:00N 66°25' E 013°07'3 5.1
2017-Jun-21 01:29N 66°27' E 013°04'3 4.7
2017-Jun-21 00:56N 66°30' E 013°00'2 4.5
2017-Jun-21 00:29N 66°31' E 012°58'4 4.6
2017-Jun-20 23:42N 66°34' E 013°04'1 4.7
2017-Jun-20 23:30N 66°35' E 013°04'12 4.4
2017-Jun-20 20:46N 66°47' E 013°14'9 4.1
2017-Jun-20 18:30N 66°54' E 013°27'3 3.9
2017-Jun-20 17:38N 66°57' E 013°29'0 3.9
2017-Jun-20 17:30N 66°58' E 013°30'2 3.9
2017-Jun-20 17:00N 66°59' E 013°35'2 4.4
2017-Jun-20 16:30N 67°00' E 013°39'2 4.7
2017-Jun-20 15:59N 67°01' E 013°44'3 5.0
2017-Jun-20 15:28N 67°03' E 013°50'2 4.5
2017-Jun-20 15:00N 67°04' E 013°54'2 4.6
2017-Jun-20 14:30N 67°06' E 013°57'5 4.6
2017-Jun-20 13:30N 67°10' E 014°03'2 4.4
2017-Jun-20 13:00N 67°12' E 014°07'2 4.2
2017-Jun-20 12:30N 67°13' E 014°10'2 4.2
2017-Jun-20 12:00N 67°15' E 014°14'2 4.5
2017-Jun-20 11:30N 67°16' E 014°19'1 1.4
2017-Jun-20 11:00N 67°16' E 014°21'0 0.0
2017-Jun-20 10:30N 67°16' E 014°21'0 0.0
2017-Jun-20 10:00N 67°16' E 014°21'0 0.0
2017-Jun-20 09:30N 67°16' E 014°21'0 0.1
2017-Jun-20 09:00N 67°16' E 014°21'0 0.1
2017-Jun-20 08:30N 67°16' E 014°20'0 0.1
2017-Jun-20 08:00N 67°16' E 014°21'0 0.4
2017-Jun-20 07:30N 67°16' E 014°20'0 0.4
2017-Jun-20 07:00N 67°16' E 014°21'0 0.1
2017-Jun-20 06:30N 67°16' E 014°20'0 0.1
2017-Jun-20 06:00N 67°16' E 014°21'0 0.0
2017-Jun-20 05:30N 67°16' E 014°21'0 0.0
2017-Jun-20 05:00N 67°16' E 014°21'2 3.2
2017-Jun-20 04:30N 67°18' E 014°23'0 0.0
2017-Jun-20 04:00N 67°18' E 014°23'0 0.0
2017-Jun-20 03:30N 67°18' E 014°23'0 0.0
2017-Jun-20 03:00N 67°18' E 014°23'0 0.0
2017-Jun-20 02:30N 67°18' E 014°23'0 0.0
2017-Jun-20 02:00N 67°18' E 014°23'0 0.0
2017-Jun-20 01:30N 67°18' E 014°23'0 0.0
2017-Jun-20 01:00N 67°18' E 014°23'0 0.0
2017-Jun-20 00:30N 67°18' E 014°23'0 0.0
2017-Jun-20 00:00N 67°18' E 014°23'0 0.0
2017-Jun-19 23:30N 67°18' E 014°23'0 0.0
2017-Jun-19 23:00N 67°18' E 014°23'0 0.0
2017-Jun-19 22:30N 67°18' E 014°23'0 0.0
2017-Jun-19 22:00N 67°18' E 014°23'0 0.0
2017-Jun-19 21:30N 67°18' E 014°23'0 0.0
2017-Jun-19 21:00N 67°18' E 014°23'0 0.0
2017-Jun-19 20:30N 67°18' E 014°23'0 0.0
2017-Jun-19 20:00N 67°18' E 014°23'0 0.0
2017-Jun-19 19:30N 67°18' E 014°23'0 0.0
2017-Jun-19 19:00N 67°18' E 014°23'0 0.0
2017-Jun-19 18:30N 67°18' E 014°23'0 0.0
2017-Jun-19 18:00N 67°18' E 014°23'0 0.0
2017-Jun-19 17:30N 67°18' E 014°23'1 1.3
2017-Jun-19 17:00N 67°17' E 014°22'1 1.9
2017-Jun-19 16:30N 67°16' E 014°21'0 0.1
2017-Jun-19 16:00N 67°16' E 014°21'0 0.1
2017-Jun-19 15:30N 67°16' E 014°21'0 0.0
2017-Jun-19 15:00N 67°16' E 014°21'0 0.0
2017-Jun-19 14:00N 67°16' E 014°21'0 0.0
2017-Jun-19 13:30N 67°16' E 014°21'0 0.0
2017-Jun-19 13:00N 67°16' E 014°21'0 0.1
2017-Jun-19 12:30N 67°16' E 014°21'0 0.0
2017-Jun-19 12:00N 67°16' E 014°21'0 0.2
2017-Jun-19 11:30N 67°16' E 014°21'0 0.0
2017-Jun-19 11:00N 67°16' E 014°21'0 0.0
2017-Jun-19 10:30N 67°16' E 014°21'0 0.0
2017-Jun-19 10:00N 67°16' E 014°21'0 0.0
2017-Jun-19 09:30N 67°16' E 014°21'0 0.0
2017-Jun-19 09:00N 67°16' E 014°21'0 0.0
2017-Jun-19 08:30N 67°16' E 014°21'0 0.1
2017-Jun-19 08:00N 67°16' E 014°21'0 0.1
2017-Jun-19 07:30N 67°16' E 014°21'0 0.0
2017-Jun-19 07:00N 67°16' E 014°21'0 0.1
2017-Jun-19 06:30N 67°16' E 014°20'0 0.1
2017-Jun-19 06:00N 67°16' E 014°21'0 0.9
2017-Jun-19 05:30N 67°17' E 014°21'1 2.4
2017-Jun-19 05:00N 67°18' E 014°23'0 0.0
2017-Jun-19 04:30N 67°18' E 014°23'0 0.0
2017-Jun-19 04:00N 67°18' E 014°23'0 0.0
2017-Jun-19 03:30N 67°18' E 014°23'0 0.0
2017-Jun-19 03:00N 67°18' E 014°23'0 0.0
2017-Jun-19 02:30N 67°18' E 014°23'0 0.0
2017-Jun-19 02:00N 67°18' E 014°23'0 0.0
2017-Jun-19 01:30N 67°18' E 014°23'0 0.0
2017-Jun-19 01:00N 67°18' E 014°23'0 0.0
2017-Jun-19 00:30N 67°18' E 014°23'0 0.0
2017-Jun-19 00:00N 67°18' E 014°23'0 0.0
2017-Jun-18 23:30N 67°18' E 014°23'0 0.0
2017-Jun-18 23:00N 67°18' E 014°23'0 0.0
2017-Jun-18 22:30N 67°18' E 014°23'0 0.0
2017-Jun-18 22:00N 67°18' E 014°23'0 0.0
2017-Jun-18 21:30N 67°18' E 014°23'0 0.0
2017-Jun-18 21:00N 67°18' E 014°23'0 0.0
2017-Jun-18 20:30N 67°18' E 014°23'0 0.0
2017-Jun-18 19:59N 67°18' E 014°23'0 0.0
2017-Jun-18 19:29N 67°18' E 014°23'0 0.0
2017-Jun-18 19:00N 67°18' E 014°23'0 0.0
2017-Jun-18 18:29N 67°18' E 014°23'0 0.0
2017-Jun-18 18:00N 67°18' E 014°23'0 0.0
2017-Jun-18 17:30N 67°18' E 014°23'0 0.0
2017-Jun-18 17:00N 67°18' E 014°23'0 0.0
2017-Jun-18 16:30N 67°18' E 014°23'0 0.0
2017-Jun-18 16:00N 67°18' E 014°23'0 0.0
2017-Jun-18 15:30N 67°18' E 014°23'0 0.0
2017-Jun-18 15:00N 67°18' E 014°23'0 0.0
2017-Jun-18 14:00N 67°18' E 014°23'0 0.0
2017-Jun-18 13:30N 67°18' E 014°23'0 0.0
2017-Jun-18 13:00N 67°18' E 014°23'0 0.0
2017-Jun-18 12:30N 67°18' E 014°23'0 0.0
2017-Jun-18 12:00N 67°18' E 014°23'0 0.0
2017-Jun-18 11:30N 67°18' E 014°23'0 0.0
2017-Jun-18 11:00N 67°18' E 014°23'0 0.0
2017-Jun-18 10:30N 67°18' E 014°23'0 0.0
2017-Jun-18 10:00N 67°18' E 014°23'0 0.0
2017-Jun-18 09:30N 67°18' E 014°23'0 0.0
2017-Jun-18 09:00N 67°18' E 014°23'0 0.0
2017-Jun-18 08:30N 67°18' E 014°23'0 0.0
2017-Jun-18 08:00N 67°18' E 014°23'0 0.0
2017-Jun-18 07:30N 67°18' E 014°23'0 0.0
2017-Jun-18 07:00N 67°18' E 014°23'0 0.0
2017-Jun-18 06:30N 67°18' E 014°23'0 0.0
2017-Jun-18 06:00N 67°18' E 014°23'0 0.0
2017-Jun-18 05:30N 67°18' E 014°23'0 0.0
2017-Jun-18 05:00N 67°18' E 014°23'0 0.0
2017-Jun-18 04:30N 67°18' E 014°23'0 0.0
2017-Jun-18 04:00N 67°18' E 014°23'0 0.0
2017-Jun-18 03:30N 67°18' E 014°23'0 0.0
2017-Jun-18 03:00N 67°18' E 014°23'0 0.0
2017-Jun-18 02:30N 67°18' E 014°23'0 0.0
2017-Jun-18 02:00N 67°18' E 014°23'0 0.0
2017-Jun-18 01:30N 67°18' E 014°23'0 0.0
2017-Jun-18 01:00N 67°18' E 014°23'0 0.0
2017-Jun-18 00:30N 67°18' E 014°23'0 0.0
2017-Jun-18 00:00N 67°18' E 014°23'0 0.0
2017-Jun-17 23:30N 67°18' E 014°23'0 0.0
2017-Jun-17 23:00N 67°18' E 014°23'0 0.0
2017-Jun-17 22:30N 67°18' E 014°23'0 0.0
2017-Jun-17 22:00N 67°18' E 014°23'0 0.0
2017-Jun-17 21:30N 67°18' E 014°23'0 0.0
2017-Jun-17 21:00N 67°18' E 014°23'0 0.0
2017-Jun-17 20:30N 67°18' E 014°23'0 0.0
2017-Jun-17 20:00N 67°18' E 014°23'0 0.0
2017-Jun-17 19:30N 67°18' E 014°23'0 0.0
2017-Jun-17 19:00N 67°18' E 014°23'0 0.0
2017-Jun-17 18:30N 67°18' E 014°23'0 0.0
2017-Jun-17 18:00N 67°18' E 014°23'0 0.0
2017-Jun-17 17:30N 67°18' E 014°23'0 0.0
2017-Jun-17 17:00N 67°18' E 014°23'0 0.0
2017-Jun-17 16:30N 67°18' E 014°23'0 0.0
2017-Jun-17 16:00N 67°18' E 014°23'0 0.0
2017-Jun-17 15:30N 67°18' E 014°23'1 3.0
2017-Jun-17 15:00N 67°16' E 014°21'0 0.2
2017-Jun-17 14:30N 67°16' E 014°21'0 0.0
2017-Jun-17 13:30N 67°16' E 014°21'0 0.0
2017-Jun-17 13:00N 67°16' E 014°21'0 0.0
2017-Jun-17 12:30N 67°16' E 014°21'0 0.0
2017-Jun-17 12:00N 67°16' E 014°21'0 0.0
2017-Jun-17 11:30N 67°16' E 014°21'0 0.0
2017-Jun-17 11:00N 67°16' E 014°21'0 0.1
2017-Jun-17 10:30N 67°16' E 014°21'0 0.1
2017-Jun-17 10:00N 67°16' E 014°21'0 0.0
2017-Jun-17 09:30N 67°16' E 014°21'0 0.0
2017-Jun-17 09:00N 67°16' E 014°21'0 0.0
2017-Jun-17 08:30N 67°16' E 014°21'0 0.2
2017-Jun-17 08:00N 67°16' E 014°21'0 0.2
2017-Jun-17 07:30N 67°16' E 014°21'0 0.0
2017-Jun-17 07:00N 67°16' E 014°21'0 0.1
2017-Jun-17 06:30N 67°16' E 014°21'0 0.1
2017-Jun-17 06:00N 67°16' E 014°21'0 0.0
2017-Jun-17 05:30N 67°16' E 014°21'0 1.0
2017-Jun-17 05:00N 67°17' E 014°21'1 2.3
2017-Jun-17 04:30N 67°18' E 014°23'0 0.0
2017-Jun-17 04:00N 67°18' E 014°23'0 0.0
2017-Jun-17 03:30N 67°18' E 014°23'0 0.0
2017-Jun-17 03:00N 67°18' E 014°23'0 0.0
2017-Jun-17 02:30N 67°18' E 014°23'0 0.0
2017-Jun-17 02:00N 67°18' E 014°23'0 0.0
2017-Jun-17 01:30N 67°18' E 014°23'0 0.0
2017-Jun-17 01:00N 67°18' E 014°23'0 0.0
2017-Jun-17 00:30N 67°18' E 014°23'0 0.0
2017-Jun-17 00:00N 67°18' E 014°23'0 0.0
2017-Jun-16 23:30N 67°18' E 014°23'0 0.0
2017-Jun-16 23:00N 67°18' E 014°23'0 0.0
2017-Jun-16 22:30N 67°18' E 014°23'0 0.0
2017-Jun-16 22:00N 67°18' E 014°23'0 0.0
2017-Jun-16 21:30N 67°18' E 014°23'0 0.0
2017-Jun-16 21:00N 67°18' E 014°23'0 0.0
2017-Jun-16 20:30N 67°18' E 014°23'0 0.0
2017-Jun-16 20:00N 67°18' E 014°23'0 0.0
2017-Jun-16 19:30N 67°18' E 014°23'0 0.0
2017-Jun-16 19:00N 67°18' E 014°23'0 0.0
2017-Jun-16 18:30N 67°18' E 014°23'0 0.0
2017-Jun-16 18:00N 67°18' E 014°23'0 0.0
2017-Jun-16 17:30N 67°18' E 014°23'0 0.6
2017-Jun-16 17:00N 67°17' E 014°23'1 2.5
2017-Jun-16 16:30N 67°16' E 014°21'0 0.0
2017-Jun-16 16:00N 67°16' E 014°21'0 0.0
2017-Jun-16 15:30N 67°16' E 014°21'0 0.0
2017-Jun-16 15:00N 67°16' E 014°21'0 0.0
2017-Jun-16 14:30N 67°16' E 014°21'0 0.1
2017-Jun-16 13:30N 67°16' E 014°21'0 0.2
2017-Jun-16 13:00N 67°16' E 014°21'0 0.0
2017-Jun-16 12:30N 67°16' E 014°21'0 0.0
2017-Jun-16 12:00N 67°16' E 014°21'0 0.0
2017-Jun-16 11:30N 67°16' E 014°21'0 0.0
2017-Jun-16 11:00N 67°16' E 014°21'0 0.0
2017-Jun-16 10:30N 67°16' E 014°21'0 0.0
2017-Jun-16 10:00N 67°16' E 014°21'0 0.0
2017-Jun-16 09:30N 67°16' E 014°21'1 2.8
2017-Jun-16 09:00N 67°17' E 014°23'0 0.1
2017-Jun-16 08:30N 67°17' E 014°23'1 2.8
2017-Jun-16 08:00N 67°16' E 014°21'0 0.2
2017-Jun-16 07:30N 67°16' E 014°21'0 0.2
2017-Jun-16 07:00N 67°16' E 014°21'0 0.0
2017-Jun-16 06:30N 67°16' E 014°21'0 0.0
2017-Jun-16 06:00N 67°16' E 014°21'0 0.0
2017-Jun-16 05:30N 67°16' E 014°21'0 0.0
2017-Jun-16 05:00N 67°16' E 014°21'1 2.8
2017-Jun-16 04:30N 67°17' E 014°23'0 0.3
2017-Jun-16 04:00N 67°18' E 014°23'0 0.0
2017-Jun-16 03:30N 67°18' E 014°23'0 0.0
2017-Jun-16 03:00N 67°18' E 014°23'0 0.0
2017-Jun-16 02:30N 67°18' E 014°23'0 0.0
2017-Jun-16 02:00N 67°18' E 014°23'0 0.0
2017-Jun-16 01:30N 67°18' E 014°23'0 0.0
2017-Jun-16 01:00N 67°18' E 014°23'0 0.0
2017-Jun-16 00:30N 67°18' E 014°23'0 0.0
2017-Jun-16 00:00N 67°18' E 014°23'0 0.0
2017-Jun-15 23:30N 67°18' E 014°23'0 0.0
2017-Jun-15 23:00N 67°18' E 014°23'0 0.0
2017-Jun-15 22:30N 67°18' E 014°23'0 0.0
2017-Jun-15 22:00N 67°18' E 014°23'0 0.0
2017-Jun-15 21:30N 67°18' E 014°23'0 0.0
2017-Jun-15 21:00N 67°18' E 014°23'0 0.0
2017-Jun-15 20:30N 67°18' E 014°23'0 0.0
2017-Jun-15 20:00N 67°18' E 014°23'0 0.0
2017-Jun-15 19:30N 67°18' E 014°23'0 0.0
2017-Jun-15 19:00N 67°18' E 014°23'0 0.0
2017-Jun-15 18:30N 67°18' E 014°23'0 0.0
2017-Jun-15 18:00N 67°18' E 014°23'0 0.0
2017-Jun-15 17:30N 67°18' E 014°23'0 0.0
2017-Jun-15 17:00N 67°18' E 014°23'1 1.1
2017-Jun-15 16:30N 67°17' E 014°22'1 2.1
2017-Jun-15 16:00N 67°16' E 014°21'0 0.2
2017-Jun-15 15:30N 67°16' E 014°21'0 0.2
2017-Jun-15 15:00N 67°16' E 014°21'0 0.0
2017-Jun-15 14:00N 67°16' E 014°21'0 0.0
2017-Jun-15 13:30N 67°16' E 014°21'0 0.1
2017-Jun-15 13:00N 67°16' E 014°21'0 0.1
2017-Jun-15 12:30N 67°16' E 014°21'0 0.0
2017-Jun-15 12:00N 67°16' E 014°21'0 0.3
2017-Jun-15 11:30N 67°16' E 014°21'0 0.3
2017-Jun-15 11:00N 67°16' E 014°21'0 0.0
2017-Jun-15 10:30N 67°16' E 014°21'0 0.0
2017-Jun-15 10:00N 67°16' E 014°21'0 0.1
2017-Jun-15 09:30N 67°16' E 014°21'0 0.1
2017-Jun-15 09:00N 67°16' E 014°21'0 0.2
2017-Jun-15 08:30N 67°16' E 014°21'0 0.0
2017-Jun-15 08:00N 67°16' E 014°21'0 0.0
2017-Jun-15 07:30N 67°16' E 014°21'0 0.0
2017-Jun-15 07:00N 67°16' E 014°21'0 0.0
2017-Jun-15 06:30N 67°16' E 014°21'0 0.0
2017-Jun-15 06:00N 67°16' E 014°21'0 0.0
2017-Jun-15 05:30N 67°16' E 014°21'0 0.1
2017-Jun-15 05:00N 67°16' E 014°21'1 2.5
2017-Jun-15 04:30N 67°17' E 014°23'0 0.6
2017-Jun-15 04:00N 67°18' E 014°23'0 0.0
2017-Jun-15 03:30N 67°18' E 014°23'0 0.0
2017-Jun-15 03:00N 67°18' E 014°23'0 0.0
2017-Jun-15 02:30N 67°18' E 014°23'0 0.0
2017-Jun-15 02:00N 67°18' E 014°23'0 0.0
2017-Jun-15 01:30N 67°18' E 014°23'0 0.0
2017-Jun-15 01:00N 67°18' E 014°23'0 0.0
2017-Jun-15 00:30N 67°18' E 014°23'0 0.0
2017-Jun-15 00:00N 67°18' E 014°23'0 0.0
2017-Jun-14 23:30N 67°18' E 014°23'0 0.0
2017-Jun-14 23:00N 67°18' E 014°23'0 0.0
2017-Jun-14 22:30N 67°18' E 014°23'0 0.0
2017-Jun-14 22:00N 67°18' E 014°23'0 0.0
2017-Jun-14 21:30N 67°18' E 014°23'0 0.0
2017-Jun-14 21:00N 67°18' E 014°23'0 0.0
2017-Jun-14 20:30N 67°18' E 014°23'0 0.0
2017-Jun-14 20:00N 67°18' E 014°23'0 0.0
2017-Jun-14 19:30N 67°18' E 014°23'0 0.0
2017-Jun-14 19:00N 67°18' E 014°23'0 0.0
2017-Jun-14 18:30N 67°18' E 014°23'0 0.0
2017-Jun-14 18:00N 67°18' E 014°23'0 0.0
2017-Jun-14 17:30N 67°18' E 014°23'0 0.6
2017-Jun-14 17:00N 67°17' E 014°23'1 2.6
2017-Jun-14 16:30N 67°16' E 014°21'0 0.3
2017-Jun-14 16:00N 67°16' E 014°21'0 0.3
2017-Jun-14 15:30N 67°16' E 014°21'0 0.0
2017-Jun-14 15:00N 67°16' E 014°21'0 0.0
2017-Jun-14 14:00N 67°16' E 014°21'0 0.0
2017-Jun-14 13:30N 67°16' E 014°21'0 0.0
2017-Jun-14 13:00N 67°16' E 014°21'0 0.2
2017-Jun-14 12:30N 67°16' E 014°21'0 0.1
2017-Jun-14 12:00N 67°16' E 014°21'0 0.2
2017-Jun-14 11:30N 67°16' E 014°21'0 0.2
2017-Jun-14 11:00N 67°16' E 014°21'0 0.2
2017-Jun-14 10:30N 67°16' E 014°21'0 0.0
2017-Jun-14 10:00N 67°16' E 014°21'0 0.0
2017-Jun-14 09:30N 67°16' E 014°21'0 0.0
2017-Jun-14 09:00N 67°16' E 014°21'0 0.0
2017-Jun-14 08:30N 67°16' E 014°21'0 0.1
2017-Jun-14 08:00N 67°16' E 014°21'0 0.1
2017-Jun-14 07:30N 67°16' E 014°21'0 0.2
2017-Jun-14 07:00N 67°16' E 014°21'0 0.0
2017-Jun-14 06:30N 67°16' E 014°21'0 0.0
2017-Jun-14 06:00N 67°16' E 014°21'0 0.0
2017-Jun-14 05:30N 67°16' E 014°21'0 0.0
2017-Jun-14 05:00N 67°16' E 014°21'1 2.7
2017-Jun-14 04:30N 67°17' E 014°23'0 0.4
2017-Jun-14 04:00N 67°18' E 014°23'0 0.0
2017-Jun-14 03:30N 67°18' E 014°23'0 0.0
2017-Jun-14 03:00N 67°18' E 014°23'0 0.0
2017-Jun-14 02:30N 67°18' E 014°23'0 0.0
2017-Jun-14 02:00N 67°18' E 014°23'0 0.0
2017-Jun-14 01:30N 67°18' E 014°23'0 0.0
2017-Jun-14 01:00N 67°18' E 014°23'0 0.0
2017-Jun-14 00:30N 67°18' E 014°23'0 0.0
2017-Jun-14 00:00N 67°18' E 014°23'0 0.0
2017-Jun-13 23:30N 67°18' E 014°23'0 0.0
2017-Jun-13 23:00N 67°18' E 014°23'0 0.0
2017-Jun-13 22:30N 67°18' E 014°23'0 0.0
2017-Jun-13 22:00N 67°18' E 014°23'0 0.0
2017-Jun-13 21:30N 67°18' E 014°23'0 0.0
2017-Jun-13 21:00N 67°18' E 014°23'0 0.0
2017-Jun-13 20:30N 67°18' E 014°23'0 0.0
2017-Jun-13 20:00N 67°18' E 014°23'0 0.0
2017-Jun-13 19:30N 67°18' E 014°23'0 0.0
2017-Jun-13 19:00N 67°18' E 014°23'  
Track history (hours):
 
Tides and Currents Weather Stations Pressure Air Temp Water Temp Dewpoint Dewpoint Depression Visibility Wind Speed Wind Dir Waves Ship Positions

Robin S

Last reported at 2017-Jun-23 19:00 UTC. Time now 2017-Jun-23 19:15 UTC.
Position N 66°20' E 013°00'.

Length 16 m; draft 3.4 m.

Type: Towing. MMSI: 258354500.

Date/timePositionNaut miles runAvg speedWind from/ knotsBaromVisibWave heightAir tempDewpointWater temp
2017-Jun-23 19:00N 66°20' E 013°00'0 0.0
2017-Jun-23 18:30N 66°20' E 013°00'0 0.0
2017-Jun-23 18:00N 66°20' E 013°00'0 0.0
2017-Jun-23 17:30N 66°20' E 013°00'1 1.3
2017-Jun-23 17:00N 66°21' E 012°59'3 5.3
2017-Jun-23 16:30N 66°23' E 013°04'3 5.1
2017-Jun-23 16:00N 66°24' E 013°08'1 2.5
2017-Jun-23 15:30N 66°26' E 013°08'0 0.7
2017-Jun-23 15:00N 66°26' E 013°09'0 0.0
2017-Jun-23 14:00N 66°26' E 013°09'0 0.5
2017-Jun-23 13:30N 66°26' E 013°08'0 0.5
2017-Jun-23 12:59N 66°26' E 013°09'0 0.0
2017-Jun-23 12:30N 66°26' E 013°09'1 1.3
2017-Jun-23 11:59N 66°25' E 013°09'1 1.5
2017-Jun-23 11:30N 66°26' E 013°09'0 0.0
2017-Jun-23 10:59N 66°26' E 013°09'0 0.0
2017-Jun-23 10:30N 66°26' E 013°09'1 1.8
2017-Jun-23 09:59N 66°25' E 013°09'1 2.0
2017-Jun-23 09:30N 66°26' E 013°09'0 0.0
2017-Jun-23 09:00N 66°26' E 013°09'0 0.0
2017-Jun-23 08:30N 66°26' E 013°09'0 0.0
2017-Jun-23 08:00N 66°26' E 013°09'1 2.0
2017-Jun-23 07:30N 66°25' E 013°09'1 1.9
2017-Jun-23 07:00N 66°26' E 013°09'0 0.0
2017-Jun-23 06:30N 66°26' E 013°09'0 0.0
2017-Jun-23 06:00N 66°26' E 013°09'0 0.0
2017-Jun-23 05:30N 66°26' E 013°09'1 2.1
2017-Jun-23 05:00N 66°25' E 013°08'3 5.4
2017-Jun-23 04:30N 66°23' E 013°04'3 5.4
2017-Jun-23 04:00N 66°21' E 012°59'1 1.4
2017-Jun-23 03:30N 66°20' E 013°00'0 0.0
2017-Jun-23 03:00N 66°20' E 013°00'0 0.0
2017-Jun-23 02:30N 66°20' E 013°00'0 0.0
2017-Jun-23 02:00N 66°20' E 013°00'0 0.0
2017-Jun-23 01:30N 66°20' E 013°00'0 0.0
2017-Jun-23 01:00N 66°20' E 013°00'0 0.0
2017-Jun-23 00:29N 66°20' E 013°00'0 0.0
2017-Jun-23 00:00N 66°20' E 013°00'0 0.0
2017-Jun-22 23:29N 66°20' E 013°00'0 0.0
2017-Jun-22 23:00N 66°20' E 013°00'0 0.0
2017-Jun-22 22:30N 66°20' E 013°00'0 0.0
2017-Jun-22 22:00N 66°20' E 013°00'0 0.0
2017-Jun-22 21:30N 66°20' E 013°00'0 0.0
2017-Jun-22 21:00N 66°20' E 013°00'0 0.0
2017-Jun-22 20:30N 66°20' E 013°00'0 0.0
2017-Jun-22 20:00N 66°20' E 013°00'0 0.0
2017-Jun-22 19:30N 66°20' E 013°00'0 0.0
2017-Jun-22 19:00N 66°20' E 013°00'0 0.0
2017-Jun-22 18:29N 66°20' E 013°00'2 3.5
2017-Jun-22 18:00N 66°22' E 013°01'2 4.9
2017-Jun-22 17:30N 66°23' E 013°06'2 4.2
2017-Jun-22 16:59N 66°25' E 013°09'1 2.0
2017-Jun-22 16:30N 66°26' E 013°09'0 0.0
2017-Jun-22 16:00N 66°26' E 013°09'0 0.0
2017-Jun-22 15:30N 66°26' E 013°09'1 1.1
2017-Jun-22 15:00N 66°25' E 013°08'1 1.1
2017-Jun-22 14:30N 66°26' E 013°09'0 0.0
2017-Jun-22 13:30N 66°26' E 013°09'0 0.1
2017-Jun-22 13:00N 66°26' E 013°09'1 2.0
2017-Jun-22 12:30N 66°25' E 013°09'1 2.0
2017-Jun-22 12:00N 66°26' E 013°08'0 0.3
2017-Jun-22 11:30N 66°26' E 013°09'0 0.0
2017-Jun-22 11:00N 66°26' E 013°09'0 0.0
2017-Jun-22 10:30N 66°26' E 013°09'0 0.8
2017-Jun-22 10:00N 66°26' E 013°08'0 0.6
2017-Jun-22 09:30N 66°26' E 013°09'0 0.2
2017-Jun-22 09:00N 66°26' E 013°09'0 0.0
2017-Jun-22 08:29N 66°26' E 013°09'0 0.5
2017-Jun-22 08:00N 66°26' E 013°08'0 0.1
2017-Jun-22 07:30N 66°26' E 013°08'0 0.6
2017-Jun-22 07:00N 66°26' E 013°09'0 0.0
2017-Jun-22 06:30N 66°26' E 013°09'0 0.0
2017-Jun-22 06:00N 66°26' E 013°09'2 4.1
2017-Jun-22 05:30N 66°24' E 013°08'2 4.6
2017-Jun-22 05:00N 66°23' E 013°03'2 4.5
2017-Jun-22 04:30N 66°21' E 012°59'1 2.0
2017-Jun-22 03:59N 66°20' E 013°00'0 0.0
2017-Jun-22 03:30N 66°20' E 013°00'0 0.0
2017-Jun-22 03:00N 66°20' E 013°00'0 0.0
2017-Jun-22 02:30N 66°20' E 013°00'0 0.0
2017-Jun-22 02:00N 66°20' E 013°00'0 0.0
2017-Jun-22 01:30N 66°20' E 013°00'0 0.0
2017-Jun-22 01:00N 66°20' E 013°00'0 0.0
2017-Jun-22 00:30N 66°20' E 013°00'0 0.0
2017-Jun-22 00:00N 66°20' E 013°00'0 0.0
2017-Jun-21 23:30N 66°20' E 013°00'0 0.0
2017-Jun-21 23:00N 66°20' E 013°00'0 0.0
2017-Jun-21 22:30N 66°20' E 013°00'0 0.0
2017-Jun-21 22:00N 66°20' E 013°00'0 0.0
2017-Jun-21 21:30N 66°20' E 013°00'0 0.0
2017-Jun-21 21:00N 66°20' E 013°00'0 0.0
2017-Jun-21 20:30N 66°20' E 013°00'0 0.0
2017-Jun-21 20:00N 66°20' E 013°00'0 0.0
2017-Jun-21 19:30N 66°20' E 013°00'0 0.0
2017-Jun-21 19:00N 66°20' E 013°00'0 0.0
2017-Jun-21 18:30N 66°20' E 013°00'1 2.5
2017-Jun-21 18:00N 66°22' E 012°60'2 4.9
2017-Jun-21 17:30N 66°23' E 013°05'2 5.0
2017-Jun-21 17:00N 66°25' E 013°09'1 2.0
2017-Jun-21 16:30N 66°26' E 013°08'0 0.4
2017-Jun-21 16:00N 66°26' E 013°09'0 0.0
2017-Jun-21 15:30N 66°26' E 013°09'1 1.3
2017-Jun-21 15:00N 66°25' E 013°08'1 1.3
2017-Jun-21 14:30N 66°26' E 013°09'0 0.0
2017-Jun-21 13:26N 66°26' E 013°09'1 1.6
2017-Jun-21 12:50N 66°25' E 013°09'1 2.9
2017-Jun-21 12:30N 66°26' E 013°09'0 0.1
2017-Jun-21 12:00N 66°26' E 013°09'0 0.0
2017-Jun-21 11:29N 66°26' E 013°09'0 0.1
2017-Jun-21 11:00N 66°26' E 013°09'0 0.0
2017-Jun-21 10:30N 66°26' E 013°09'0 0.1
2017-Jun-21 10:00N 66°26' E 013°09'0 0.2
2017-Jun-21 09:30N 66°26' E 013°09'1 1.3
2017-Jun-21 08:48N 66°25' E 013°09'1 4.3
2017-Jun-21 08:30N 66°24' E 013°08'3 5.0
2017-Jun-21 08:00N 66°22' E 013°03'2 0.5
2017-Jun-21 03:51N 66°20' E 013°00'1 2.9
2017-Jun-21 03:25N 66°21' E 012°59'0 1.1
2017-Jun-21 02:59N 66°22' E 012°60'2 4.9
2017-Jun-21 02:30N 66°23' E 013°05'2 4.6
2017-Jun-21 02:00N 66°25' E 013°07'3 5.1
2017-Jun-21 01:29N 66°27' E 013°04'3 4.7
2017-Jun-21 00:56N 66°30' E 013°00'2 4.5
2017-Jun-21 00:29N 66°31' E 012°58'4 4.6
2017-Jun-20 23:42N 66°34' E 013°04'1 4.7
2017-Jun-20 23:30N 66°35' E 013°04'12 4.4
2017-Jun-20 20:46N 66°47' E 013°14'9 4.1
2017-Jun-20 18:30N 66°54' E 013°27'3 3.9
2017-Jun-20 17:38N 66°57' E 013°29'0 3.9
2017-Jun-20 17:30N 66°58' E 013°30'2 3.9
2017-Jun-20 17:00N 66°59' E 013°35'2 4.4
2017-Jun-20 16:30N 67°00' E 013°39'2 4.7
2017-Jun-20 15:59N 67°01' E 013°44'3 5.0
2017-Jun-20 15:28N 67°03' E 013°50'2 4.5
2017-Jun-20 15:00N 67°04' E 013°54'2 4.6
2017-Jun-20 14:30N 67°06' E 013°57'5 4.6
2017-Jun-20 13:30N 67°10' E 014°03'2 4.4
2017-Jun-20 13:00N 67°12' E 014°07'2 4.2
2017-Jun-20 12:30N 67°13' E 014°10'2 4.2
2017-Jun-20 12:00N 67°15' E 014°14'2 4.5
2017-Jun-20 11:30N 67°16' E 014°19'1 1.4
2017-Jun-20 11:00N 67°16' E 014°21'0 0.0
2017-Jun-20 10:30N 67°16' E 014°21'0 0.0
2017-Jun-20 10:00N 67°16' E 014°21'0 0.0
2017-Jun-20 09:30N 67°16' E 014°21'0 0.1
2017-Jun-20 09:00N 67°16' E 014°21'0 0.1
2017-Jun-20 08:30N 67°16' E 014°20'0 0.1
2017-Jun-20 08:00N 67°16' E 014°21'0 0.4
2017-Jun-20 07:30N 67°16' E 014°20'0 0.4
2017-Jun-20 07:00N 67°16' E 014°21'0 0.1
2017-Jun-20 06:30N 67°16' E 014°20'0 0.1
2017-Jun-20 06:00N 67°16' E 014°21'0 0.0
2017-Jun-20 05:30N 67°16' E 014°21'0 0.0
2017-Jun-20 05:00N 67°16' E 014°21'2 3.2
2017-Jun-20 04:30N 67°18' E 014°23'0 0.0
2017-Jun-20 04:00N 67°18' E 014°23'0 0.0
2017-Jun-20 03:30N 67°18' E 014°23'0 0.0
2017-Jun-20 03:00N 67°18' E 014°23'0 0.0
2017-Jun-20 02:30N 67°18' E 014°23'0 0.0
2017-Jun-20 02:00N 67°18' E 014°23'0 0.0
2017-Jun-20 01:30N 67°18' E 014°23'0 0.0
2017-Jun-20 01:00N 67°18' E 014°23'0 0.0
2017-Jun-20 00:30N 67°18' E 014°23'0 0.0
2017-Jun-20 00:00N 67°18' E 014°23'0 0.0
2017-Jun-19 23:30N 67°18' E 014°23'0 0.0
2017-Jun-19 23:00N 67°18' E 014°23'0 0.0
2017-Jun-19 22:30N 67°18' E 014°23'0 0.0
2017-Jun-19 22:00N 67°18' E 014°23'0 0.0
2017-Jun-19 21:30N 67°18' E 014°23'0 0.0
2017-Jun-19 21:00N 67°18' E 014°23'0 0.0
2017-Jun-19 20:30N 67°18' E 014°23'0 0.0
2017-Jun-19 20:00N 67°18' E 014°23'0 0.0
2017-Jun-19 19:30N 67°18' E 014°23'0 0.0
2017-Jun-19 19:00N 67°18' E 014°23'0 0.0
2017-Jun-19 18:30N 67°18' E 014°23'0 0.0
2017-Jun-19 18:00N 67°18' E 014°23'0 0.0
2017-Jun-19 17:30N 67°18' E 014°23'1 1.3
2017-Jun-19 17:00N 67°17' E 014°22'1 1.9
2017-Jun-19 16:30N 67°16' E 014°21'0 0.1
2017-Jun-19 16:00N 67°16' E 014°21'0 0.1
2017-Jun-19 15:30N 67°16' E 014°21'0 0.0
2017-Jun-19 15:00N 67°16' E 014°21'0 0.0
2017-Jun-19 14:00N 67°16' E 014°21'0 0.0
2017-Jun-19 13:30N 67°16' E 014°21'0 0.0
2017-Jun-19 13:00N 67°16' E 014°21'0 0.1
2017-Jun-19 12:30N 67°16' E 014°21'0 0.0
2017-Jun-19 12:00N 67°16' E 014°21'0 0.2
2017-Jun-19 11:30N 67°16' E 014°21'0 0.0
2017-Jun-19 11:00N 67°16' E 014°21'0 0.0
2017-Jun-19 10:30N 67°16' E 014°21'0 0.0
2017-Jun-19 10:00N 67°16' E 014°21'0 0.0
2017-Jun-19 09:30N 67°16' E 014°21'0 0.0
2017-Jun-19 09:00N 67°16' E 014°21'0 0.0
2017-Jun-19 08:30N 67°16' E 014°21'0 0.1
2017-Jun-19 08:00N 67°16' E 014°21'0 0.1
2017-Jun-19 07:30N 67°16' E 014°21'0 0.0
2017-Jun-19 07:00N 67°16' E 014°21'0 0.1
2017-Jun-19 06:30N 67°16' E 014°20'0 0.1
2017-Jun-19 06:00N 67°16' E 014°21'0 0.9
2017-Jun-19 05:30N 67°17' E 014°21'1 2.4
2017-Jun-19 05:00N 67°18' E 014°23'0 0.0
2017-Jun-19 04:30N 67°18' E 014°23'0 0.0
2017-Jun-19 04:00N 67°18' E 014°23'0 0.0
2017-Jun-19 03:30N 67°18' E 014°23'0 0.0
2017-Jun-19 03:00N 67°18' E 014°23'0 0.0
2017-Jun-19 02:30N 67°18' E 014°23'0 0.0
2017-Jun-19 02:00N 67°18' E 014°23'0 0.0
2017-Jun-19 01:30N 67°18' E 014°23'0 0.0
2017-Jun-19 01:00N 67°18' E 014°23'0 0.0
2017-Jun-19 00:30N 67°18' E 014°23'0 0.0
2017-Jun-19 00:00N 67°18' E 014°23'0 0.0
2017-Jun-18 23:30N 67°18' E 014°23'0 0.0
2017-Jun-18 23:00N 67°18' E 014°23'0 0.0
2017-Jun-18 22:30N 67°18' E 014°23'0 0.0
2017-Jun-18 22:00N 67°18' E 014°23'0 0.0
2017-Jun-18 21:30N 67°18' E 014°23'0 0.0
2017-Jun-18 21:00N 67°18' E 014°23'0 0.0
2017-Jun-18 20:30N 67°18' E 014°23'0 0.0
2017-Jun-18 19:59N 67°18' E 014°23'0 0.0
2017-Jun-18 19:29N 67°18' E 014°23'0 0.0
2017-Jun-18 19:00N 67°18' E 014°23'0 0.0
2017-Jun-18 18:29N 67°18' E 014°23'0 0.0
2017-Jun-18 18:00N 67°18' E 014°23'0 0.0
2017-Jun-18 17:30N 67°18' E 014°23'0 0.0
2017-Jun-18 17:00N 67°18' E 014°23'0 0.0
2017-Jun-18 16:30N 67°18' E 014°23'0 0.0
2017-Jun-18 16:00N 67°18' E 014°23'0 0.0
2017-Jun-18 15:30N 67°18' E 014°23'0 0.0
2017-Jun-18 15:00N 67°18' E 014°23'0 0.0
2017-Jun-18 14:00N 67°18' E 014°23'0 0.0
2017-Jun-18 13:30N 67°18' E 014°23'0 0.0
2017-Jun-18 13:00N 67°18' E 014°23'0 0.0
2017-Jun-18 12:30N 67°18' E 014°23'0 0.0
2017-Jun-18 12:00N 67°18' E 014°23'0 0.0
2017-Jun-18 11:30N 67°18' E 014°23'0 0.0
2017-Jun-18 11:00N 67°18' E 014°23'0 0.0
2017-Jun-18 10:30N 67°18' E 014°23'0 0.0
2017-Jun-18 10:00N 67°18' E 014°23'0 0.0
2017-Jun-18 09:30N 67°18' E 014°23'0 0.0
2017-Jun-18 09:00N 67°18' E 014°23'0 0.0
2017-Jun-18 08:30N 67°18' E 014°23'0 0.0
2017-Jun-18 08:00N 67°18' E 014°23'0 0.0
2017-Jun-18 07:30N 67°18' E 014°23'0 0.0
2017-Jun-18 07:00N 67°18' E 014°23'0 0.0
2017-Jun-18 06:30N 67°18' E 014°23'0 0.0
2017-Jun-18 06:00N 67°18' E 014°23'0 0.0
2017-Jun-18 05:30N 67°18' E 014°23'0 0.0
2017-Jun-18 05:00N 67°18' E 014°23'0 0.0
2017-Jun-18 04:30N 67°18' E 014°23'0 0.0
2017-Jun-18 04:00N 67°18' E 014°23'0 0.0
2017-Jun-18 03:30N 67°18' E 014°23'0 0.0
2017-Jun-18 03:00N 67°18' E 014°23'0 0.0
2017-Jun-18 02:30N 67°18' E 014°23'0 0.0
2017-Jun-18 02:00N 67°18' E 014°23'0 0.0
2017-Jun-18 01:30N 67°18' E 014°23'0 0.0
2017-Jun-18 01:00N 67°18' E 014°23'0 0.0
2017-Jun-18 00:30N 67°18' E 014°23'0 0.0
2017-Jun-18 00:00N 67°18' E 014°23'0 0.0
2017-Jun-17 23:30N 67°18' E 014°23'0 0.0
2017-Jun-17 23:00N 67°18' E 014°23'0 0.0
2017-Jun-17 22:30N 67°18' E 014°23'0 0.0
2017-Jun-17 22:00N 67°18' E 014°23'0 0.0
2017-Jun-17 21:30N 67°18' E 014°23'0 0.0
2017-Jun-17 21:00N 67°18' E 014°23'0 0.0
2017-Jun-17 20:30N 67°18' E 014°23'0 0.0
2017-Jun-17 20:00N 67°18' E 014°23'0 0.0
2017-Jun-17 19:30N 67°18' E 014°23'0 0.0
2017-Jun-17 19:00N 67°18' E 014°23'0 0.0
2017-Jun-17 18:30N 67°18' E 014°23'0 0.0
2017-Jun-17 18:00N 67°18' E 014°23'0 0.0
2017-Jun-17 17:30N 67°18' E 014°23'0 0.0
2017-Jun-17 17:00N 67°18' E 014°23'0 0.0
2017-Jun-17 16:30N 67°18' E 014°23'0 0.0
2017-Jun-17 16:00N 67°18' E 014°23'0 0.0
2017-Jun-17 15:30N 67°18' E 014°23'1 3.0
2017-Jun-17 15:00N 67°16' E 014°21'0 0.2
2017-Jun-17 14:30N 67°16' E 014°21'0 0.0
2017-Jun-17 13:30N 67°16' E 014°21'0 0.0
2017-Jun-17 13:00N 67°16' E 014°21'0 0.0
2017-Jun-17 12:30N 67°16' E 014°21'0 0.0
2017-Jun-17 12:00N 67°16' E 014°21'0 0.0
2017-Jun-17 11:30N 67°16' E 014°21'0 0.0
2017-Jun-17 11:00N 67°16' E 014°21'0 0.1
2017-Jun-17 10:30N 67°16' E 014°21'0 0.1
2017-Jun-17 10:00N 67°16' E 014°21'0 0.0
2017-Jun-17 09:30N 67°16' E 014°21'0 0.0
2017-Jun-17 09:00N 67°16' E 014°21'0 0.0
2017-Jun-17 08:30N 67°16' E 014°21'0 0.2
2017-Jun-17 08:00N 67°16' E 014°21'0 0.2
2017-Jun-17 07:30N 67°16' E 014°21'0 0.0
2017-Jun-17 07:00N 67°16' E 014°21'0 0.1
2017-Jun-17 06:30N 67°16' E 014°21'0 0.1
2017-Jun-17 06:00N 67°16' E 014°21'0 0.0
2017-Jun-17 05:30N 67°16' E 014°21'0 1.0
2017-Jun-17 05:00N 67°17' E 014°21'1 2.3
2017-Jun-17 04:30N 67°18' E 014°23'0 0.0
2017-Jun-17 04:00N 67°18' E 014°23'0 0.0
2017-Jun-17 03:30N 67°18' E 014°23'0 0.0
2017-Jun-17 03:00N 67°18' E 014°23'0 0.0
2017-Jun-17 02:30N 67°18' E 014°23'0 0.0
2017-Jun-17 02:00N 67°18' E 014°23'0 0.0
2017-Jun-17 01:30N 67°18' E 014°23'0 0.0
2017-Jun-17 01:00N 67°18' E 014°23'0 0.0
2017-Jun-17 00:30N 67°18' E 014°23'0 0.0
2017-Jun-17 00:00N 67°18' E 014°23'0 0.0
2017-Jun-16 23:30N 67°18' E 014°23'0 0.0
2017-Jun-16 23:00N 67°18' E 014°23'0 0.0
2017-Jun-16 22:30N 67°18' E 014°23'0 0.0
2017-Jun-16 22:00N 67°18' E 014°23'0 0.0
2017-Jun-16 21:30N 67°18' E 014°23'0 0.0
2017-Jun-16 21:00N 67°18' E 014°23'0 0.0
2017-Jun-16 20:30N 67°18' E 014°23'0 0.0
2017-Jun-16 20:00N 67°18' E 014°23'0 0.0
2017-Jun-16 19:30N 67°18' E 014°23'0 0.0
2017-Jun-16 19:00N 67°18' E 014°23'0 0.0
2017-Jun-16 18:30N 67°18' E 014°23'0 0.0
2017-Jun-16 18:00N 67°18' E 014°23'0 0.0
2017-Jun-16 17:30N 67°18' E 014°23'0 0.6
2017-Jun-16 17:00N 67°17' E 014°23'1 2.5
2017-Jun-16 16:30N 67°16' E 014°21'0 0.0
2017-Jun-16 16:00N 67°16' E 014°21'0 0.0
2017-Jun-16 15:30N 67°16' E 014°21'0 0.0
2017-Jun-16 15:00N 67°16' E 014°21'0 0.0
2017-Jun-16 14:30N 67°16' E 014°21'0 0.1
2017-Jun-16 13:30N 67°16' E 014°21'0 0.2
2017-Jun-16 13:00N 67°16' E 014°21'0 0.0
2017-Jun-16 12:30N 67°16' E 014°21'0 0.0
2017-Jun-16 12:00N 67°16' E 014°21'0 0.0
2017-Jun-16 11:30N 67°16' E 014°21'0 0.0
2017-Jun-16 11:00N 67°16' E 014°21'0 0.0
2017-Jun-16 10:30N 67°16' E 014°21'0 0.0
2017-Jun-16 10:00N 67°16' E 014°21'0 0.0
2017-Jun-16 09:30N 67°16' E 014°21'1 2.8
2017-Jun-16 09:00N 67°17' E 014°23'0 0.1
2017-Jun-16 08:30N 67°17' E 014°23'1 2.8
2017-Jun-16 08:00N 67°16' E 014°21'0 0.2
2017-Jun-16 07:30N 67°16' E 014°21'0 0.2
2017-Jun-16 07:00N 67°16' E 014°21'0 0.0
2017-Jun-16 06:30N 67°16' E 014°21'0 0.0
2017-Jun-16 06:00N 67°16' E 014°21'0 0.0
2017-Jun-16 05:30N 67°16' E 014°21'0 0.0
2017-Jun-16 05:00N 67°16' E 014°21'1 2.8
2017-Jun-16 04:30N 67°17' E 014°23'0 0.3
2017-Jun-16 04:00N 67°18' E 014°23'0 0.0
2017-Jun-16 03:30N 67°18' E 014°23'0 0.0
2017-Jun-16 03:00N 67°18' E 014°23'0 0.0
2017-Jun-16 02:30N 67°18' E 014°23'0 0.0
2017-Jun-16 02:00N 67°18' E 014°23'0 0.0
2017-Jun-16 01:30N 67°18' E 014°23'0 0.0
2017-Jun-16 01:00N 67°18' E 014°23'0 0.0
2017-Jun-16 00:30N 67°18' E 014°23'0 0.0
2017-Jun-16 00:00N 67°18' E 014°23'0 0.0
2017-Jun-15 23:30N 67°18' E 014°23'0 0.0
2017-Jun-15 23:00N 67°18' E 014°23'0 0.0
2017-Jun-15 22:30N 67°18' E 014°23'0 0.0
2017-Jun-15 22:00N 67°18' E 014°23'0 0.0
2017-Jun-15 21:30N 67°18' E 014°23'0 0.0
2017-Jun-15 21:00N 67°18' E 014°23'0 0.0
2017-Jun-15 20:30N 67°18' E 014°23'0 0.0
2017-Jun-15 20:00N 67°18' E 014°23'0 0.0
2017-Jun-15 19:30N 67°18' E 014°23'0 0.0
2017-Jun-15 19:00N 67°18' E 014°23'0 0.0
2017-Jun-15 18:30N 67°18' E 014°23'0 0.0
2017-Jun-15 18:00N 67°18' E 014°23'0 0.0
2017-Jun-15 17:30N 67°18' E 014°23'0 0.0
2017-Jun-15 17:00N 67°18' E 014°23'1 1.1
2017-Jun-15 16:30N 67°17' E 014°22'1 2.1
2017-Jun-15 16:00N 67°16' E 014°21'0 0.2
2017-Jun-15 15:30N 67°16' E 014°21'0 0.2
2017-Jun-15 15:00N 67°16' E 014°21'0 0.0
2017-Jun-15 14:00N 67°16' E 014°21'0 0.0
2017-Jun-15 13:30N 67°16' E 014°21'0 0.1
2017-Jun-15 13:00N 67°16' E 014°21'0 0.1
2017-Jun-15 12:30N 67°16' E 014°21'0 0.0
2017-Jun-15 12:00N 67°16' E 014°21'0 0.3
2017-Jun-15 11:30N 67°16' E 014°21'0 0.3
2017-Jun-15 11:00N 67°16' E 014°21'0 0.0
2017-Jun-15 10:30N 67°16' E 014°21'0 0.0
2017-Jun-15 10:00N 67°16' E 014°21'0 0.1
2017-Jun-15 09:30N 67°16' E 014°21'0 0.1
2017-Jun-15 09:00N 67°16' E 014°21'0 0.2
2017-Jun-15 08:30N 67°16' E 014°21'0 0.0
2017-Jun-15 08:00N 67°16' E 014°21'0 0.0
2017-Jun-15 07:30N 67°16' E 014°21'0 0.0
2017-Jun-15 07:00N 67°16' E 014°21'0 0.0
2017-Jun-15 06:30N 67°16' E 014°21'0 0.0
2017-Jun-15 06:00N 67°16' E 014°21'0 0.0
2017-Jun-15 05:30N 67°16' E 014°21'0 0.1
2017-Jun-15 05:00N 67°16' E 014°21'1 2.5
2017-Jun-15 04:30N 67°17' E 014°23'0 0.6
2017-Jun-15 04:00N 67°18' E 014°23'0 0.0
2017-Jun-15 03:30N 67°18' E 014°23'0 0.0
2017-Jun-15 03:00N 67°18' E 014°23'0 0.0
2017-Jun-15 02:30N 67°18' E 014°23'0 0.0
2017-Jun-15 02:00N 67°18' E 014°23'0 0.0
2017-Jun-15 01:30N 67°18' E 014°23'0 0.0
2017-Jun-15 01:00N 67°18' E 014°23'0 0.0
2017-Jun-15 00:30N 67°18' E 014°23'0 0.0
2017-Jun-15 00:00N 67°18' E 014°23'0 0.0
2017-Jun-14 23:30N 67°18' E 014°23'0 0.0
2017-Jun-14 23:00N 67°18' E 014°23'0 0.0
2017-Jun-14 22:30N 67°18' E 014°23'0 0.0
2017-Jun-14 22:00N 67°18' E 014°23'0 0.0
2017-Jun-14 21:30N 67°18' E 014°23'0 0.0
2017-Jun-14 21:00N 67°18' E 014°23'0 0.0
2017-Jun-14 20:30N 67°18' E 014°23'0 0.0
2017-Jun-14 20:00N 67°18' E 014°23'0 0.0
2017-Jun-14 19:30N 67°18' E 014°23'0 0.0
2017-Jun-14 19:00N 67°18' E 014°23'0 0.0
2017-Jun-14 18:30N 67°18' E 014°23'0 0.0
2017-Jun-14 18:00N 67°18' E 014°23'0 0.0
2017-Jun-14 17:30N 67°18' E 014°23'0 0.6
2017-Jun-14 17:00N 67°17' E 014°23'1 2.6
2017-Jun-14 16:30N 67°16' E 014°21'0 0.3
2017-Jun-14 16:00N 67°16' E 014°21'0 0.3
2017-Jun-14 15:30N 67°16' E 014°21'0 0.0
2017-Jun-14 15:00N 67°16' E 014°21'0 0.0
2017-Jun-14 14:00N 67°16' E 014°21'0 0.0
2017-Jun-14 13:30N 67°16' E 014°21'0 0.0
2017-Jun-14 13:00N 67°16' E 014°21'0 0.2
2017-Jun-14 12:30N 67°16' E 014°21'0 0.1
2017-Jun-14 12:00N 67°16' E 014°21'0 0.2
2017-Jun-14 11:30N 67°16' E 014°21'0 0.2
2017-Jun-14 11:00N 67°16' E 014°21'0 0.2
2017-Jun-14 10:30N 67°16' E 014°21'0 0.0
2017-Jun-14 10:00N 67°16' E 014°21'0 0.0
2017-Jun-14 09:30N 67°16' E 014°21'0 0.0
2017-Jun-14 09:00N 67°16' E 014°21'0 0.0
2017-Jun-14 08:30N 67°16' E 014°21'0 0.1
2017-Jun-14 08:00N 67°16' E 014°21'0 0.1
2017-Jun-14 07:30N 67°16' E 014°21'0 0.2
2017-Jun-14 07:00N 67°16' E 014°21'0 0.0
2017-Jun-14 06:30N 67°16' E 014°21'0 0.0
2017-Jun-14 06:00N 67°16' E 014°21'0 0.0
2017-Jun-14 05:30N 67°16' E 014°21'0 0.0
2017-Jun-14 05:00N 67°16' E 014°21'1 2.7
2017-Jun-14 04:30N 67°17' E 014°23'0 0.4
2017-Jun-14 04:00N 67°18' E 014°23'0 0.0
2017-Jun-14 03:30N 67°18' E 014°23'0 0.0
2017-Jun-14 03:00N 67°18' E 014°23'0 0.0
2017-Jun-14 02:30N 67°18' E 014°23'0 0.0
2017-Jun-14 02:00N 67°18' E 014°23'0 0.0
2017-Jun-14 01:30N 67°18' E 014°23'0 0.0
2017-Jun-14 01:00N 67°18' E 014°23'0 0.0
2017-Jun-14 00:30N 67°18' E 014°23'0 0.0
2017-Jun-14 00:00N 67°18' E 014°23'0 0.0
2017-Jun-13 23:30N 67°18' E 014°23'0 0.0
2017-Jun-13 23:00N 67°18' E 014°23'0 0.0
2017-Jun-13 22:30N 67°18' E 014°23'0 0.0
2017-Jun-13 22:00N 67°18' E 014°23'0 0.0
2017-Jun-13 21:30N 67°18' E 014°23'0 0.0
2017-Jun-13 21:00N 67°18' E 014°23'0 0.0
2017-Jun-13 20:30N 67°18' E 014°23'0 0.0
2017-Jun-13 20:00N 67°18' E 014°23'0 0.0
2017-Jun-13 19:30N 67°18' E 014°23'0 0.0
2017-Jun-13 19:00N 67°18' E 014°23'  

Dump ship's entire track history